sensor_id;sensor_type;location;lat;lon;timestamp;temperature;humidity
14378;DHT22;7272;53.668;9.578;2023-04-24T00:00:58;13.50;99.90
14378;DHT22;7272;53.668;9.578;2023-04-24T00:03:59;13.40;99.90
14378;DHT22;7272;53.668;9.578;2023-04-24T00:07:00;13.30;99.90
14378;DHT22;7272;53.668;9.578;2023-04-24T00:10:02;13.30;99.90
14378;DHT22;7272;53.668;9.578;2023-04-24T00:13:04;13.40;99.90
14378;DHT22;7272;53.668;9.578;2023-04-24T00:16:05;13.40;99.90
14378;DHT22;7272;53.668;9.578;2023-04-24T00:19:07;13.40;99.90
14378;DHT22;7272;53.668;9.578;2023-04-24T00:22:08;13.30;99.90
14378;DHT22;7272;53.668;9.578;2023-04-24T00:25:09;13.30;99.90
14378;DHT22;7272;53.668;9.578;2023-04-24T00:28:11;13.20;99.90
14378;DHT22;7272;53.668;9.578;2023-04-24T00:31:12;13.20;99.90
14378;DHT22;7272;53.668;9.578;2023-04-24T00:34:14;13.20;99.90
14378;DHT22;7272;53.668;9.578;2023-04-24T00:37:15;13.20;99.90
14378;DHT22;7272;53.668;9.578;2023-04-24T00:40:19;13.10;99.90
14378;DHT22;7272;53.668;9.578;2023-04-24T00:43:21;13.10;99.90
14378;DHT22;7272;53.668;9.578;2023-04-24T00:46:22;13.10;99.90
14378;DHT22;7272;53.668;9.578;2023-04-24T00:49:23;13.00;99.90
14378;DHT22;7272;53.668;9.578;2023-04-24T00:52:25;13.00;99.90
14378;DHT22;7272;53.668;9.578;2023-04-24T00:55:27;12.90;99.90
14378;DHT22;7272;53.668;9.578;2023-04-24T00:58:29;12.80;99.90
14378;DHT22;7272;53.668;9.578;2023-04-24T01:01:31;12.70;99.90
14378;DHT22;7272;53.668;9.578;2023-04-24T01:04:33;12.70;99.90
14378;DHT22;7272;53.668;9.578;2023-04-24T01:07:34;12.70;99.90
14378;DHT22;7272;53.668;9.578;2023-04-24T01:10:37;12.70;99.90
14378;DHT22;7272;53.668;9.578;2023-04-24T01:13:40;12.60;99.90
14378;DHT22;7272;53.668;9.578;2023-04-24T01:16:44;12.50;99.90
14378;DHT22;7272;53.668;9.578;2023-04-24T01:19:46;12.50;99.90
14378;DHT22;7272;53.668;9.578;2023-04-24T01:22:48;12.40;99.90
14378;DHT22;7272;53.668;9.578;2023-04-24T01:25:50;12.40;99.90
14378;DHT22;7272;53.668;9.578;2023-04-24T01:28:53;12.40;99.90
14378;DHT22;7272;53.668;9.578;2023-04-24T01:31:55;12.40;99.90
14378;DHT22;7272;53.668;9.578;2023-04-24T01:34:56;12.50;99.90
14378;DHT22;7272;53.668;9.578;2023-04-24T01:37:58;12.50;99.90
14378;DHT22;7272;53.668;9.578;2023-04-24T01:41:00;12.50;99.90
14378;DHT22;7272;53.668;9.578;2023-04-24T01:44:01;12.50;99.90
14378;DHT22;7272;53.668;9.578;2023-04-24T01:47:03;12.50;99.90
14378;DHT22;7272;53.668;9.578;2023-04-24T01:50:06;12.60;99.90
14378;DHT22;7272;53.668;9.578;2023-04-24T01:53:08;12.60;99.90
14378;DHT22;7272;53.668;9.578;2023-04-24T01:56:10;12.60;99.90
14378;DHT22;7272;53.668;9.578;2023-04-24T01:59:12;12.60;99.90
14378;DHT22;7272;53.668;9.578;2023-04-24T02:02:13;12.60;99.90
14378;DHT22;7272;53.668;9.578;2023-04-24T02:05:15;12.70;99.90
14378;DHT22;7272;53.668;9.578;2023-04-24T02:08:16;12.60;99.90
14378;DHT22;7272;53.668;9.578;2023-04-24T02:11:18;12.50;99.90
14378;DHT22;7272;53.668;9.578;2023-04-24T02:14:19;12.50;99.90
14378;DHT22;7272;53.668;9.578;2023-04-24T02:17:20;12.40;99.90
14378;DHT22;7272;53.668;9.578;2023-04-24T02:20:22;12.40;99.90
14378;DHT22;7272;53.668;9.578;2023-04-24T02:23:24;12.30;99.90
14378;DHT22;7272;53.668;9.578;2023-04-24T02:26:26;12.20;99.90
14378;DHT22;7272;53.668;9.578;2023-04-24T02:29:27;12.20;99.90
14378;DHT22;7272;53.668;9.578;2023-04-24T02:32:28;12.20;99.90
14378;DHT22;7272;53.668;9.578;2023-04-24T02:35:31;12.30;99.90
14378;DHT22;7272;53.668;9.578;2023-04-24T02:38:33;12.20;99.90
14378;DHT22;7272;53.668;9.578;2023-04-24T02:41:34;12.20;99.90
14378;DHT22;7272;53.668;9.578;2023-04-24T02:44:35;12.20;99.90
14378;DHT22;7272;53.668;9.578;2023-04-24T02:47:37;12.10;99.90
14378;DHT22;7272;53.668;9.578;2023-04-24T02:50:38;12.10;99.90
14378;DHT22;7272;53.668;9.578;2023-04-24T02:53:40;12.00;99.90
14378;DHT22;7272;53.668;9.578;2023-04-24T02:56:41;12.00;99.90
14378;DHT22;7272;53.668;9.578;2023-04-24T02:59:43;11.90;99.90
14378;DHT22;7272;53.668;9.578;2023-04-24T03:02:44;11.80;99.90
14378;DHT22;7272;53.668;9.578;2023-04-24T03:05:46;11.80;99.90
14378;DHT22;7272;53.668;9.578;2023-04-24T03:08:48;11.80;99.90
14378;DHT22;7272;53.668;9.578;2023-04-24T03:11:49;11.70;99.90
14378;DHT22;7272;53.668;9.578;2023-04-24T03:14:50;11.70;99.90
14378;DHT22;7272;53.668;9.578;2023-04-24T03:17:53;11.60;99.90
14378;DHT22;7272;53.668;9.578;2023-04-24T03:20:55;11.60;99.90
14378;DHT22;7272;53.668;9.578;2023-04-24T03:23:57;11.50;99.90
14378;DHT22;7272;53.668;9.578;2023-04-24T03:26:59;11.50;99.90
14378;DHT22;7272;53.668;9.578;2023-04-24T03:30:33;11.50;99.90
14378;DHT22;7272;53.668;9.578;2023-04-24T03:33:35;11.60;99.90
14378;DHT22;7272;53.668;9.578;2023-04-24T03:36:37;11.60;99.90
14378;DHT22;7272;53.668;9.578;2023-04-24T03:39:41;11.60;99.90
14378;DHT22;7272;53.668;9.578;2023-04-24T03:42:43;11.60;99.90
14378;DHT22;7272;53.668;9.578;2023-04-24T03:45:44;11.60;99.90
14378;DHT22;7272;53.668;9.578;2023-04-24T03:48:47;11.60;99.90
14378;DHT22;7272;53.668;9.578;2023-04-24T03:51:50;11.60;99.90
14378;DHT22;7272;53.668;9.578;2023-04-24T03:54:57;11.50;99.90
14378;DHT22;7272;53.668;9.578;2023-04-24T03:58:00;11.50;99.90
14378;DHT22;7272;53.668;9.578;2023-04-24T04:01:01;11.50;99.90
14378;DHT22;7272;53.668;9.578;2023-04-24T04:04:21;11.40;99.90
14378;DHT22;7272;53.668;9.578;2023-04-24T04:07:22;11.40;99.90
14378;DHT22;7272;53.668;9.578;2023-04-24T04:10:24;11.50;99.90
14378;DHT22;7272;53.668;9.578;2023-04-24T04:13:25;11.40;99.90
14378;DHT22;7272;53.668;9.578;2023-04-24T04:16:27;11.40;99.90
14378;DHT22;7272;53.668;9.578;2023-04-24T04:19:34;11.40;99.90
14378;DHT22;7272;53.668;9.578;2023-04-24T04:22:36;11.30;99.90
14378;DHT22;7272;53.668;9.578;2023-04-24T04:25:39;11.30;99.90
14378;DHT22;7272;53.668;9.578;2023-04-24T04:28:40;11.30;99.90
14378;DHT22;7272;53.668;9.578;2023-04-24T04:31:42;11.20;99.90
14378;DHT22;7272;53.668;9.578;2023-04-24T04:34:47;11.20;99.90
14378;DHT22;7272;53.668;9.578;2023-04-24T04:37:50;11.20;99.90
14378;DHT22;7272;53.668;9.578;2023-04-24T04:41:31;11.40;99.90
14378;DHT22;7272;53.668;9.578;2023-04-24T04:44:36;11.60;99.90
14378;DHT22;7272;53.668;9.578;2023-04-24T04:47:40;11.70;99.90
14378;DHT22;7272;53.668;9.578;2023-04-24T04:50:43;11.70;99.90
14378;DHT22;7272;53.668;9.578;2023-04-24T04:53:44;11.80;99.90
14378;DHT22;7272;53.668;9.578;2023-04-24T04:56:46;11.80;99.90
14378;DHT22;7272;53.668;9.578;2023-04-24T04:59:48;11.80;99.90
14378;DHT22;7272;53.668;9.578;2023-04-24T05:02:59;11.80;99.90
14378;DHT22;7272;53.668;9.578;2023-04-24T05:06:01;11.90;99.90
14378;DHT22;7272;53.668;9.578;2023-04-24T05:09:03;11.90;99.90
14378;DHT22;7272;53.668;9.578;2023-04-24T05:12:15;11.90;99.90
14378;DHT22;7272;53.668;9.578;2023-04-24T05:15:24;12.00;99.90
14378;DHT22;7272;53.668;9.578;2023-04-24T05:18:25;12.10;99.90
14378;DHT22;7272;53.668;9.578;2023-04-24T05:21:27;12.20;99.90
14378;DHT22;7272;53.668;9.578;2023-04-24T05:24:29;12.20;99.90
14378;DHT22;7272;53.668;9.578;2023-04-24T05:28:03;12.30;99.90
14378;DHT22;7272;53.668;9.578;2023-04-24T05:31:07;12.30;99.90
14378;DHT22;7272;53.668;9.578;2023-04-24T05:34:09;12.30;99.90
14378;DHT22;7272;53.668;9.578;2023-04-24T05:37:14;12.40;99.90
14378;DHT22;7272;53.668;9.578;2023-04-24T05:40:16;12.40;99.90
14378;DHT22;7272;53.668;9.578;2023-04-24T05:43:18;12.50;99.90
14378;DHT22;7272;53.668;9.578;2023-04-24T05:46:19;12.50;99.90
14378;DHT22;7272;53.668;9.578;2023-04-24T05:49:20;12.50;99.90
14378;DHT22;7272;53.668;9.578;2023-04-24T05:52:22;12.60;99.90
14378;DHT22;7272;53.668;9.578;2023-04-24T05:55:24;12.70;99.90
14378;DHT22;7272;53.668;9.578;2023-04-24T05:58:26;12.70;99.90
14378;DHT22;7272;53.668;9.578;2023-04-24T06:01:28;12.70;99.90
14378;DHT22;7272;53.668;9.578;2023-04-24T06:04:40;12.80;99.90
14378;DHT22;7272;53.668;9.578;2023-04-24T06:07:42;12.80;99.90
14378;DHT22;7272;53.668;9.578;2023-04-24T06:10:43;12.80;99.90
14378;DHT22;7272;53.668;9.578;2023-04-24T06:13:46;12.90;99.90
14378;DHT22;7272;53.668;9.578;2023-04-24T06:17:06;12.80;99.90
14378;DHT22;7272;53.668;9.578;2023-04-24T06:20:12;12.90;99.90
14378;DHT22;7272;53.668;9.578;2023-04-24T06:23:13;13.10;99.90
14378;DHT22;7272;53.668;9.578;2023-04-24T06:26:14;13.20;99.90
14378;DHT22;7272;53.668;9.578;2023-04-24T06:29:16;13.30;99.90
14378;DHT22;7272;53.668;9.578;2023-04-24T06:32:17;13.20;99.90
14378;DHT22;7272;53.668;9.578;2023-04-24T06:35:19;13.30;99.90
14378;DHT22;7272;53.668;9.578;2023-04-24T06:38:20;13.30;99.90
14378;DHT22;7272;53.668;9.578;2023-04-24T06:41:21;13.40;99.90
14378;DHT22;7272;53.668;9.578;2023-04-24T06:44:23;13.40;99.90
14378;DHT22;7272;53.668;9.578;2023-04-24T06:47:24;13.40;99.90
14378;DHT22;7272;53.668;9.578;2023-04-24T06:50:26;13.30;99.90
14378;DHT22;7272;53.668;9.578;2023-04-24T06:53:27;13.30;99.90
14378;DHT22;7272;53.668;9.578;2023-04-24T06:56:28;13.30;99.90
14378;DHT22;7272;53.668;9.578;2023-04-24T06:59:30;13.40;99.90
14378;DHT22;7272;53.668;9.578;2023-04-24T07:02:31;13.60;99.90
14378;DHT22;7272;53.668;9.578;2023-04-24T07:05:33;13.70;99.90
14378;DHT22;7272;53.668;9.578;2023-04-24T07:08:35;13.80;99.90
14378;DHT22;7272;53.668;9.578;2023-04-24T07:11:37;13.80;99.90
14378;DHT22;7272;53.668;9.578;2023-04-24T07:14:40;14.00;99.90
14378;DHT22;7272;53.668;9.578;2023-04-24T07:17:42;14.10;99.90
14378;DHT22;7272;53.668;9.578;2023-04-24T07:20:44;14.20;99.90
14378;DHT22;7272;53.668;9.578;2023-04-24T07:23:46;14.10;99.90
14378;DHT22;7272;53.668;9.578;2023-04-24T07:26:48;14.00;99.90
14378;DHT22;7272;53.668;9.578;2023-04-24T07:29:50;13.80;99.90
14378;DHT22;7272;53.668;9.578;2023-04-24T07:32:51;13.90;99.90
14378;DHT22;7272;53.668;9.578;2023-04-24T07:35:52;13.90;99.90
14378;DHT22;7272;53.668;9.578;2023-04-24T07:38:54;13.80;99.90
14378;DHT22;7272;53.668;9.578;2023-04-24T07:41:56;13.80;99.90
14378;DHT22;7272;53.668;9.578;2023-04-24T07:44:59;13.70;99.90
14378;DHT22;7272;53.668;9.578;2023-04-24T07:48:01;13.70;99.90
14378;DHT22;7272;53.668;9.578;2023-04-24T07:51:02;13.70;99.90
14378;DHT22;7272;53.668;9.578;2023-04-24T07:54:04;13.70;99.90
14378;DHT22;7272;53.668;9.578;2023-04-24T07:57:06;13.80;99.90
14378;DHT22;7272;53.668;9.578;2023-04-24T08:00:10;13.80;99.90
14378;DHT22;7272;53.668;9.578;2023-04-24T08:03:14;13.80;99.90
14378;DHT22;7272;53.668;9.578;2023-04-24T08:06:18;13.90;99.90
14378;DHT22;7272;53.668;9.578;2023-04-24T08:09:20;14.00;99.90
14378;DHT22;7272;53.668;9.578;2023-04-24T08:12:21;13.90;99.90
14378;DHT22;7272;53.668;9.578;2023-04-24T08:15:23;13.90;99.90
14378;DHT22;7272;53.668;9.578;2023-04-24T08:18:24;13.80;99.90
14378;DHT22;7272;53.668;9.578;2023-04-24T08:21:25;13.80;99.90
14378;DHT22;7272;53.668;9.578;2023-04-24T08:24:27;13.80;99.90
14378;DHT22;7272;53.668;9.578;2023-04-24T08:27:29;13.90;99.90
14378;DHT22;7272;53.668;9.578;2023-04-24T08:30:30;14.00;99.90
14378;DHT22;7272;53.668;9.578;2023-04-24T08:33:32;14.20;99.90
14378;DHT22;7272;53.668;9.578;2023-04-24T08:36:35;14.50;99.90
14378;DHT22;7272;53.668;9.578;2023-04-24T08:39:36;14.70;99.90
14378;DHT22;7272;53.668;9.578;2023-04-24T08:42:38;14.70;99.90
14378;DHT22;7272;53.668;9.578;2023-04-24T08:45:41;14.90;99.90
14378;DHT22;7272;53.668;9.578;2023-04-24T08:48:42;14.80;99.90
14378;DHT22;7272;53.668;9.578;2023-04-24T08:51:44;14.80;99.90
14378;DHT22;7272;53.668;9.578;2023-04-24T08:54:46;14.70;99.90
14378;DHT22;7272;53.668;9.578;2023-04-24T08:57:50;14.50;99.90
14378;DHT22;7272;53.668;9.578;2023-04-24T09:00:54;14.30;99.90
14378;DHT22;7272;53.668;9.578;2023-04-24T09:03:56;14.20;99.90
14378;DHT22;7272;53.668;9.578;2023-04-24T09:06:58;14.20;99.90
14378;DHT22;7272;53.668;9.578;2023-04-24T09:10:01;14.10;99.90
14378;DHT22;7272;53.668;9.578;2023-04-24T09:13:02;14.00;99.90
14378;DHT22;7272;53.668;9.578;2023-04-24T09:16:04;14.10;99.90
14378;DHT22;7272;53.668;9.578;2023-04-24T09:19:06;14.20;99.90
14378;DHT22;7272;53.668;9.578;2023-04-24T09:22:07;14.20;99.90
14378;DHT22;7272;53.668;9.578;2023-04-24T09:25:09;14.30;99.90
14378;DHT22;7272;53.668;9.578;2023-04-24T09:28:16;14.30;99.90
14378;DHT22;7272;53.668;9.578;2023-04-24T09:31:19;14.40;99.90
14378;DHT22;7272;53.668;9.578;2023-04-24T09:34:23;14.30;99.90
14378;DHT22;7272;53.668;9.578;2023-04-24T09:37:28;14.30;99.90
14378;DHT22;7272;53.668;9.578;2023-04-24T09:40:30;14.30;99.90
14378;DHT22;7272;53.668;9.578;2023-04-24T09:43:31;14.40;99.90
14378;DHT22;7272;53.668;9.578;2023-04-24T09:46:34;14.50;99.90
14378;DHT22;7272;53.668;9.578;2023-04-24T09:49:35;14.40;99.90
14378;DHT22;7272;53.668;9.578;2023-04-24T09:52:40;14.40;99.90
14378;DHT22;7272;53.668;9.578;2023-04-24T09:55:45;14.40;99.90
14378;DHT22;7272;53.668;9.578;2023-04-24T09:58:46;14.40;99.90
14378;DHT22;7272;53.668;9.578;2023-04-24T10:01:48;14.40;99.90
14378;DHT22;7272;53.668;9.578;2023-04-24T10:04:54;14.30;99.90
14378;DHT22;7272;53.668;9.578;2023-04-24T10:07:57;14.40;99.90
14378;DHT22;7272;53.668;9.578;2023-04-24T10:10:59;14.30;99.90
14378;DHT22;7272;53.668;9.578;2023-04-24T10:14:01;14.00;99.90
14378;DHT22;7272;53.668;9.578;2023-04-24T10:17:03;13.90;99.90
14378;DHT22;7272;53.668;9.578;2023-04-24T10:20:06;13.80;99.90
14378;DHT22;7272;53.668;9.578;2023-04-24T10:23:07;14.00;99.90
14378;DHT22;7272;53.668;9.578;2023-04-24T10:26:09;14.10;99.90
14378;DHT22;7272;53.668;9.578;2023-04-24T10:29:11;14.10;99.90
14378;DHT22;7272;53.668;9.578;2023-04-24T10:32:13;14.00;99.90
14378;DHT22;7272;53.668;9.578;2023-04-24T10:35:15;14.00;99.90
14378;DHT22;7272;53.668;9.578;2023-04-24T10:38:22;14.00;99.90
14378;DHT22;7272;53.668;9.578;2023-04-24T10:41:26;14.00;99.90
14378;DHT22;7272;53.668;9.578;2023-04-24T10:44:36;14.00;99.90
14378;DHT22;7272;53.668;9.578;2023-04-24T10:47:41;14.10;99.90
14378;DHT22;7272;53.668;9.578;2023-04-24T10:50:44;14.20;99.90
14378;DHT22;7272;53.668;9.578;2023-04-24T10:53:45;14.30;99.90
14378;DHT22;7272;53.668;9.578;2023-04-24T10:56:46;14.20;99.90
14378;DHT22;7272;53.668;9.578;2023-04-24T10:59:49;14.10;99.90
14378;DHT22;7272;53.668;9.578;2023-04-24T11:02:53;14.10;99.90
14378;DHT22;7272;53.668;9.578;2023-04-24T11:05:59;14.10;99.90
14378;DHT22;7272;53.668;9.578;2023-04-24T11:09:04;14.20;99.90
14378;DHT22;7272;53.668;9.578;2023-04-24T11:12:08;14.00;99.90
14378;DHT22;7272;53.668;9.578;2023-04-24T11:15:11;13.90;99.90
14378;DHT22;7272;53.668;9.578;2023-04-24T11:18:16;13.80;99.90
14378;DHT22;7272;53.668;9.578;2023-04-24T11:21:17;13.80;99.90
14378;DHT22;7272;53.668;9.578;2023-04-24T11:24:27;13.70;99.90
14378;DHT22;7272;53.668;9.578;2023-04-24T11:27:31;13.70;99.90
14378;DHT22;7272;53.668;9.578;2023-04-24T11:30:33;13.70;99.90
14378;DHT22;7272;53.668;9.578;2023-04-24T11:33:35;13.70;99.90
14378;DHT22;7272;53.668;9.578;2023-04-24T11:36:36;13.60;99.90
14378;DHT22;7272;53.668;9.578;2023-04-24T11:39:37;13.60;99.90
14378;DHT22;7272;53.668;9.578;2023-04-24T11:42:40;13.60;99.90
14378;DHT22;7272;53.668;9.578;2023-04-24T11:45:48;13.60;99.90
14378;DHT22;7272;53.668;9.578;2023-04-24T11:48:49;13.60;99.90
14378;DHT22;7272;53.668;9.578;2023-04-24T11:51:55;13.70;99.90
14378;DHT22;7272;53.668;9.578;2023-04-24T11:54:56;13.70;99.90
14378;DHT22;7272;53.668;9.578;2023-04-24T11:57:59;13.70;99.90
14378;DHT22;7272;53.668;9.578;2023-04-24T12:01:00;13.60;99.90
14378;DHT22;7272;53.668;9.578;2023-04-24T12:04:02;13.60;99.90
14378;DHT22;7272;53.668;9.578;2023-04-24T12:07:04;13.60;99.90
14378;DHT22;7272;53.668;9.578;2023-04-24T12:10:06;13.50;99.90
14378;DHT22;7272;53.668;9.578;2023-04-24T12:13:09;13.40;99.90
14378;DHT22;7272;53.668;9.578;2023-04-24T12:16:11;13.30;99.90
14378;DHT22;7272;53.668;9.578;2023-04-24T12:19:18;13.30;99.90
14378;DHT22;7272;53.668;9.578;2023-04-24T12:22:20;13.50;99.90
14378;DHT22;7272;53.668;9.578;2023-04-24T12:25:23;13.60;99.90
14378;DHT22;7272;53.668;9.578;2023-04-24T12:28:24;13.60;99.90
14378;DHT22;7272;53.668;9.578;2023-04-24T12:31:35;13.60;99.90
14378;DHT22;7272;53.668;9.578;2023-04-24T12:34:37;13.50;99.90
14378;DHT22;7272;53.668;9.578;2023-04-24T12:37:38;13.50;99.90
14378;DHT22;7272;53.668;9.578;2023-04-24T12:40:40;13.50;99.90
14378;DHT22;7272;53.668;9.578;2023-04-24T12:43:52;13.50;99.90
14378;DHT22;7272;53.668;9.578;2023-04-24T12:46:53;13.70;99.90
14378;DHT22;7272;53.668;9.578;2023-04-24T12:49:55;13.90;99.90
14378;DHT22;7272;53.668;9.578;2023-04-24T12:52:56;14.10;99.90
14378;DHT22;7272;53.668;9.578;2023-04-24T12:55:58;14.10;99.90
14378;DHT22;7272;53.668;9.578;2023-04-24T12:58:59;14.10;99.90
14378;DHT22;7272;53.668;9.578;2023-04-24T13:02:00;14.00;99.90
14378;DHT22;7272;53.668;9.578;2023-04-24T13:05:02;13.90;99.90
14378;DHT22;7272;53.668;9.578;2023-04-24T13:08:06;13.70;99.90
14378;DHT22;7272;53.668;9.578;2023-04-24T13:11:07;13.60;99.90
14378;DHT22;7272;53.668;9.578;2023-04-24T13:14:08;13.40;99.90
14378;DHT22;7272;53.668;9.578;2023-04-24T13:17:09;13.50;99.90
14378;DHT22;7272;53.668;9.578;2023-04-24T13:20:13;13.60;99.90
14378;DHT22;7272;53.668;9.578;2023-04-24T13:23:14;13.60;99.90
14378;DHT22;7272;53.668;9.578;2023-04-24T13:26:16;13.60;99.90
14378;DHT22;7272;53.668;9.578;2023-04-24T13:29:17;13.60;99.90
14378;DHT22;7272;53.668;9.578;2023-04-24T13:32:18;13.60;99.90
14378;DHT22;7272;53.668;9.578;2023-04-24T13:35:21;13.60;99.90
14378;DHT22;7272;53.668;9.578;2023-04-24T13:38:22;13.60;99.90
14378;DHT22;7272;53.668;9.578;2023-04-24T13:41:24;13.60;99.90
14378;DHT22;7272;53.668;9.578;2023-04-24T13:44:25;13.60;99.90
14378;DHT22;7272;53.668;9.578;2023-04-24T13:47:26;13.60;99.90
14378;DHT22;7272;53.668;9.578;2023-04-24T13:50:28;13.60;99.90
14378;DHT22;7272;53.668;9.578;2023-04-24T13:53:29;13.40;99.90
14378;DHT22;7272;53.668;9.578;2023-04-24T13:56:30;13.30;99.90
14378;DHT22;7272;53.668;9.578;2023-04-24T13:59:32;13.20;99.90
14378;DHT22;7272;53.668;9.578;2023-04-24T14:02:33;13.10;99.90
14378;DHT22;7272;53.668;9.578;2023-04-24T14:05:35;13.00;99.90
14378;DHT22;7272;53.668;9.578;2023-04-24T14:08:36;12.90;99.90
14378;DHT22;7272;53.668;9.578;2023-04-24T14:11:37;12.80;99.90
14378;DHT22;7272;53.668;9.578;2023-04-24T14:14:38;12.70;99.90
14378;DHT22;7272;53.668;9.578;2023-04-24T14:17:40;12.70;99.90
14378;DHT22;7272;53.668;9.578;2023-04-24T14:20:42;12.70;99.90
14378;DHT22;7272;53.668;9.578;2023-04-24T14:23:43;12.80;99.90
14378;DHT22;7272;53.668;9.578;2023-04-24T14:26:44;12.80;99.90
14378;DHT22;7272;53.668;9.578;2023-04-24T14:29:46;12.80;99.90
14378;DHT22;7272;53.668;9.578;2023-04-24T14:32:47;12.80;99.90
14378;DHT22;7272;53.668;9.578;2023-04-24T14:35:49;12.70;99.90
14378;DHT22;7272;53.668;9.578;2023-04-24T14:38:50;12.60;99.90
14378;DHT22;7272;53.668;9.578;2023-04-24T14:41:51;12.70;99.90
14378;DHT22;7272;53.668;9.578;2023-04-24T14:44:53;12.80;99.90
14378;DHT22;7272;53.668;9.578;2023-04-24T14:47:55;12.90;99.90
14378;DHT22;7272;53.668;9.578;2023-04-24T14:50:57;12.70;99.90
14378;DHT22;7272;53.668;9.578;2023-04-24T14:53:59;12.30;99.90
14378;DHT22;7272;53.668;9.578;2023-04-24T14:57:00;12.00;99.90
14378;DHT22;7272;53.668;9.578;2023-04-24T15:00:02;11.70;99.90
14378;DHT22;7272;53.668;9.578;2023-04-24T15:03:05;11.40;99.90
14378;DHT22;7272;53.668;9.578;2023-04-24T15:06:07;11.30;99.90
14378;DHT22;7272;53.668;9.578;2023-04-24T15:09:08;11.20;99.90
14378;DHT22;7272;53.668;9.578;2023-04-24T15:12:09;11.20;99.90
14378;DHT22;7272;53.668;9.578;2023-04-24T15:15:12;11.10;99.90
14378;DHT22;7272;53.668;9.578;2023-04-24T15:18:14;10.90;99.90
14378;DHT22;7272;53.668;9.578;2023-04-24T15:21:15;10.80;99.90
14378;DHT22;7272;53.668;9.578;2023-04-24T15:24:17;10.70;99.90
14378;DHT22;7272;53.668;9.578;2023-04-24T15:27:18;10.70;99.90
14378;DHT22;7272;53.668;9.578;2023-04-24T15:30:19;10.70;99.90
14378;DHT22;7272;53.668;9.578;2023-04-24T15:33:20;10.60;99.90
14378;DHT22;7272;53.668;9.578;2023-04-24T15:36:22;10.50;99.90
14378;DHT22;7272;53.668;9.578;2023-04-24T15:39:24;10.50;99.90
14378;DHT22;7272;53.668;9.578;2023-04-24T15:42:25;10.40;99.90
14378;DHT22;7272;53.668;9.578;2023-04-24T15:45:26;10.50;99.90
14378;DHT22;7272;53.668;9.578;2023-04-24T15:48:28;10.40;99.90
14378;DHT22;7272;53.668;9.578;2023-04-24T15:51:30;10.20;99.90
14378;DHT22;7272;53.668;9.578;2023-04-24T15:54:31;10.20;99.90
14378;DHT22;7272;53.668;9.578;2023-04-24T15:57:33;10.20;99.90
14378;DHT22;7272;53.668;9.578;2023-04-24T16:00:34;10.10;99.90
14378;DHT22;7272;53.668;9.578;2023-04-24T16:03:36;10.10;99.90
14378;DHT22;7272;53.668;9.578;2023-04-24T16:06:38;10.10;99.90
14378;DHT22;7272;53.668;9.578;2023-04-24T16:09:40;10.00;99.90
14378;DHT22;7272;53.668;9.578;2023-04-24T16:12:41;9.90;99.90
14378;DHT22;7272;53.668;9.578;2023-04-24T16:15:42;9.90;99.90
14378;DHT22;7272;53.668;9.578;2023-04-24T16:18:43;9.80;99.90
14378;DHT22;7272;53.668;9.578;2023-04-24T16:21:45;9.90;99.90
14378;DHT22;7272;53.668;9.578;2023-04-24T16:24:46;9.90;99.90
14378;DHT22;7272;53.668;9.578;2023-04-24T16:27:48;9.90;99.90
14378;DHT22;7272;53.668;9.578;2023-04-24T16:30:50;9.90;99.90
14378;DHT22;7272;53.668;9.578;2023-04-24T16:33:52;9.90;99.90
14378;DHT22;7272;53.668;9.578;2023-04-24T16:36:53;9.90;99.90
14378;DHT22;7272;53.668;9.578;2023-04-24T16:39:55;9.90;99.90
14378;DHT22;7272;53.668;9.578;2023-04-24T16:42:56;10.00;99.90
14378;DHT22;7272;53.668;9.578;2023-04-24T16:45:58;10.00;99.90
14378;DHT22;7272;53.668;9.578;2023-04-24T16:49:00;10.00;99.90
14378;DHT22;7272;53.668;9.578;2023-04-24T16:52:02;9.90;99.90
14378;DHT22;7272;53.668;9.578;2023-04-24T16:55:04;9.90;99.90
14378;DHT22;7272;53.668;9.578;2023-04-24T16:58:05;10.00;99.90
14378;DHT22;7272;53.668;9.578;2023-04-24T17:01:06;10.00;99.90
14378;DHT22;7272;53.668;9.578;2023-04-24T17:04:07;10.00;99.90
14378;DHT22;7272;53.668;9.578;2023-04-24T17:07:09;10.10;99.90
14378;DHT22;7272;53.668;9.578;2023-04-24T17:10:11;10.00;99.90
14378;DHT22;7272;53.668;9.578;2023-04-24T17:13:12;10.00;99.90
14378;DHT22;7272;53.668;9.578;2023-04-24T17:16:14;9.90;99.90
14378;DHT22;7272;53.668;9.578;2023-04-24T17:19:15;9.90;99.90
14378;DHT22;7272;53.668;9.578;2023-04-24T17:22:17;9.90;99.90
14378;DHT22;7272;53.668;9.578;2023-04-24T17:25:19;10.00;99.90
14378;DHT22;7272;53.668;9.578;2023-04-24T17:28:23;10.00;99.90
14378;DHT22;7272;53.668;9.578;2023-04-24T17:31:25;10.00;99.90
14378;DHT22;7272;53.668;9.578;2023-04-24T17:34:26;10.10;99.90
14378;DHT22;7272;53.668;9.578;2023-04-24T17:37:28;10.10;99.90
14378;DHT22;7272;53.668;9.578;2023-04-24T17:40:30;10.10;99.90
14378;DHT22;7272;53.668;9.578;2023-04-24T17:43:31;10.10;99.90
14378;DHT22;7272;53.668;9.578;2023-04-24T17:46:32;10.20;99.90
14378;DHT22;7272;53.668;9.578;2023-04-24T17:49:34;10.20;99.90
14378;DHT22;7272;53.668;9.578;2023-04-24T17:52:37;10.20;99.90
14378;DHT22;7272;53.668;9.578;2023-04-24T17:55:39;10.20;99.90
14378;DHT22;7272;53.668;9.578;2023-04-24T17:58:40;10.20;99.90
14378;DHT22;7272;53.668;9.578;2023-04-24T18:01:41;10.20;99.90
14378;DHT22;7272;53.668;9.578;2023-04-24T18:04:42;10.20;99.90
14378;DHT22;7272;53.668;9.578;2023-04-24T18:07:44;10.20;99.90
14378;DHT22;7272;53.668;9.578;2023-04-24T18:10:45;10.20;99.90
14378;DHT22;7272;53.668;9.578;2023-04-24T18:13:47;10.20;99.90
14378;DHT22;7272;53.668;9.578;2023-04-24T18:16:49;10.10;99.90
14378;DHT22;7272;53.668;9.578;2023-04-24T18:19:50;10.00;99.90
14378;DHT22;7272;53.668;9.578;2023-04-24T18:22:52;10.00;99.90
14378;DHT22;7272;53.668;9.578;2023-04-24T18:25:54;9.90;99.90
14378;DHT22;7272;53.668;9.578;2023-04-24T18:28:55;9.90;99.90
14378;DHT22;7272;53.668;9.578;2023-04-24T18:31:56;9.90;99.90
14378;DHT22;7272;53.668;9.578;2023-04-24T18:34:58;9.90;99.90
14378;DHT22;7272;53.668;9.578;2023-04-24T18:38:00;9.80;99.90
14378;DHT22;7272;53.668;9.578;2023-04-24T18:41:01;9.80;99.90
14378;DHT22;7272;53.668;9.578;2023-04-24T18:44:02;9.80;99.90
14378;DHT22;7272;53.668;9.578;2023-04-24T18:47:04;9.80;99.90
14378;DHT22;7272;53.668;9.578;2023-04-24T18:50:06;9.80;99.90
14378;DHT22;7272;53.668;9.578;2023-04-24T18:53:08;9.80;99.90
14378;DHT22;7272;53.668;9.578;2023-04-24T18:56:12;9.80;99.90
14378;DHT22;7272;53.668;9.578;2023-04-24T18:59:13;9.80;99.90
14378;DHT22;7272;53.668;9.578;2023-04-24T19:02:15;9.70;99.90
14378;DHT22;7272;53.668;9.578;2023-04-24T19:05:16;9.80;99.90
14378;DHT22;7272;53.668;9.578;2023-04-24T19:08:18;9.80;99.90
14378;DHT22;7272;53.668;9.578;2023-04-24T19:11:19;9.80;99.90
14378;DHT22;7272;53.668;9.578;2023-04-24T19:14:21;9.80;99.90
14378;DHT22;7272;53.668;9.578;2023-04-24T19:17:22;9.80;99.90
14378;DHT22;7272;53.668;9.578;2023-04-24T19:20:25;9.90;99.90
14378;DHT22;7272;53.668;9.578;2023-04-24T19:23:27;9.90;99.90
14378;DHT22;7272;53.668;9.578;2023-04-24T19:26:28;9.80;99.90
14378;DHT22;7272;53.668;9.578;2023-04-24T19:29:31;9.80;99.90
14378;DHT22;7272;53.668;9.578;2023-04-24T19:32:32;9.80;99.90